createdAt,value
2024-02-11T00:01:43.910Z,85.63
2024-02-11T00:06:48.548Z,85.39
2024-02-11T00:11:52.634Z,85.31
2024-02-11T00:17:01.322Z,85.67
2024-02-11T00:22:04.534Z,85.67
2024-02-11T00:27:07.295Z,85.83
2024-02-11T00:32:10.024Z,85.64
2024-02-11T00:37:12.870Z,85.44
2024-02-11T00:42:20.802Z,85.37
2024-02-11T00:47:24.114Z,85.40
2024-02-11T00:52:26.878Z,85.58
2024-02-11T00:57:29.647Z,85.69
2024-02-11T01:02:32.670Z,85.69
2024-02-11T01:07:37.815Z,85.56
2024-02-11T01:12:41.143Z,85.51
2024-02-11T01:17:44.721Z,85.82
2024-02-11T01:22:48.882Z,86.08
2024-02-11T01:27:51.784Z,86.33
2024-02-11T01:32:55.692Z,86.37
2024-02-11T01:38:01.883Z,86.45
2024-02-11T01:43:11.298Z,86.57
2024-02-11T01:48:14.652Z,86.59
2024-02-11T01:53:17.633Z,86.59
2024-02-11T01:58:20.901Z,86.54
2024-02-11T02:03:25.255Z,86.68
2024-02-11T02:08:27.964Z,86.88
2024-02-11T02:13:30.646Z,86.81
2024-02-11T02:18:36.117Z,86.60
2024-02-11T02:23:39.113Z,86.44
2024-02-11T02:28:42.608Z,86.43
2024-02-11T02:33:47.219Z,86.30
2024-02-11T02:38:50.173Z,86.21
2024-02-11T02:43:52.940Z,86.19
2024-02-11T02:48:56.020Z,86.06
2024-02-11T02:53:58.741Z,86.16
2024-02-11T02:59:11.224Z,86.29
2024-02-11T03:04:14.091Z,86.31
2024-02-11T03:09:17.138Z,86.24
2024-02-11T03:14:21.043Z,86.24
2024-02-11T03:19:23.888Z,86.01
2024-02-11T03:24:26.594Z,85.88
2024-02-11T03:29:29.373Z,86.03
2024-02-11T03:34:32.738Z,86.24
2024-02-11T03:39:37.189Z,86.06
2024-02-11T03:44:39.935Z,85.97
2024-02-11T03:49:42.779Z,85.95
2024-02-11T03:54:45.528Z,86.05
2024-02-11T03:59:48.720Z,86.21
2024-02-11T04:04:52.957Z,86.29
2024-02-11T04:09:55.785Z,86.36
2024-02-11T04:14:59.901Z,86.44
2024-02-11T04:20:02.980Z,86.44
2024-02-11T04:25:08.796Z,86.17
2024-02-11T04:30:16.849Z,86.28
2024-02-11T04:35:20.933Z,86.16
2024-02-11T04:40:27.864Z,85.99
2024-02-11T04:45:30.735Z,86.12
2024-02-11T04:50:36.548Z,86.09
2024-02-11T04:55:45.592Z,85.94
2024-02-11T05:00:50.371Z,86.06
2024-02-11T05:05:54.175Z,86.36
2024-02-11T05:10:58.073Z,86.44
2024-02-11T05:16:04.306Z,86.64
2024-02-11T05:21:08.344Z,86.56
2024-02-11T05:26:13.713Z,86.52
2024-02-11T05:31:19.537Z,86.47
2024-02-11T05:36:22.643Z,86.40
2024-02-11T05:41:25.474Z,86.48
2024-02-11T05:46:28.323Z,86.69
2024-02-11T05:51:31.119Z,86.55
2024-02-11T05:56:34.301Z,86.31
2024-02-11T06:01:38.386Z,86.29
2024-02-11T06:06:41.167Z,86.21
2024-02-11T06:11:44.058Z,86.11
2024-02-11T06:16:46.776Z,86.03
2024-02-11T06:21:49.465Z,85.95
2024-02-11T06:26:53.236Z,86.15
2024-02-11T06:31:56.109Z,86.20
2024-02-11T06:36:59.226Z,86.30
2024-02-11T06:42:06.810Z,86.34
2024-02-11T06:47:12.488Z,86.36
2024-02-11T06:52:15.204Z,86.35
2024-02-11T06:57:18.881Z,86.23
2024-02-11T07:02:22.056Z,86.36
2024-02-11T07:07:25.852Z,86.25
2024-02-11T07:12:28.626Z,86.34
2024-02-11T07:17:31.840Z,86.53
2024-02-11T07:22:35.645Z,86.59
2024-02-11T07:27:38.741Z,86.57
2024-02-11T07:32:44.593Z,86.54
2024-02-11T07:37:48.011Z,86.51
2024-02-11T07:42:51.077Z,86.54
2024-02-11T07:47:53.900Z,86.50
2024-02-11T07:52:57.204Z,86.38
2024-02-11T07:58:03.414Z,86.22
2024-02-11T08:03:09.609Z,85.96
2024-02-11T08:08:12.984Z,85.93
2024-02-11T08:13:15.824Z,85.84
2024-02-11T08:18:18.862Z,85.66
2024-02-11T08:23:24.368Z,85.56
2024-02-11T08:28:27.352Z,85.41
2024-02-11T08:33:30.555Z,85.27
2024-02-11T08:38:33.671Z,85.16
2024-02-11T08:43:36.901Z,85.08
2024-02-11T08:48:39.727Z,84.76
2024-02-11T08:53:43.031Z,84.59
2024-02-11T08:58:46.581Z,84.43
2024-02-11T09:03:49.708Z,84.28
2024-02-11T09:08:54.100Z,84.12
2024-02-11T09:13:58.810Z,84.12
2024-02-11T09:19:01.813Z,84.06
2024-02-11T09:24:05.081Z,83.93
2024-02-11T09:29:09.211Z,83.73
2024-02-11T09:34:12.343Z,83.70
2024-02-11T09:39:15.067Z,83.59
2024-02-11T09:44:27.195Z,83.47
2024-02-11T09:49:31.924Z,83.49
2024-02-11T09:54:35.873Z,83.41
2024-02-11T09:59:38.612Z,83.15
2024-02-11T10:04:43.404Z,82.73
2024-02-11T10:09:47.468Z,82.44
2024-02-11T10:14:54.081Z,82.52
2024-02-11T10:19:56.986Z,82.43
2024-02-11T10:24:59.685Z,82.29
2024-02-11T10:30:02.553Z,82.09
2024-02-11T10:35:06.034Z,81.83
2024-02-11T10:40:13.118Z,81.95
2024-02-11T10:45:16.141Z,82.10
2024-02-11T10:50:19.287Z,81.87
2024-02-11T10:55:23.552Z,81.86
2024-02-11T11:00:28.436Z,81.83
2024-02-11T11:05:34.296Z,81.33
2024-02-11T11:10:38.426Z,81.23
2024-02-11T11:15:43.896Z,81.41
2024-02-11T11:20:56.490Z,81.08
2024-02-11T11:25:59.775Z,80.69
2024-02-11T11:31:03.835Z,80.28
2024-02-11T11:36:07.374Z,80.11
2024-02-11T11:41:11.905Z,80.22
2024-02-11T11:46:15.832Z,80.90
2024-02-11T11:51:20.879Z,81.59
2024-02-11T11:56:24.626Z,82.06
2024-02-11T12:01:27.505Z,82.36
2024-02-11T12:06:30.460Z,82.56
2024-02-11T12:11:33.649Z,82.77
2024-02-11T12:16:36.522Z,82.69
2024-02-11T12:21:39.328Z,82.60
2024-02-11T12:26:42.618Z,82.49
2024-02-11T12:31:45.333Z,82.46
2024-02-11T12:36:48.297Z,82.56
2024-02-11T12:41:51.007Z,82.63
2024-02-11T12:46:54.103Z,82.81
2024-02-11T12:51:58.121Z,82.99
2024-02-11T12:57:01.063Z,83.13
2024-02-11T13:02:03.876Z,83.30
2024-02-11T13:07:07.208Z,83.53
2024-02-11T13:12:10.877Z,83.42
2024-02-11T13:17:14.221Z,83.42
2024-02-11T13:22:16.966Z,83.50
2024-02-11T13:27:19.664Z,83.63
2024-02-11T13:32:22.649Z,83.51
2024-02-11T13:37:25.652Z,83.66
2024-02-11T13:42:29.426Z,83.85
2024-02-11T13:47:32.592Z,84.11
2024-02-11T13:52:36.183Z,84.21
2024-02-11T13:57:38.904Z,84.31
2024-02-11T14:02:41.726Z,84.25
2024-02-11T14:07:45.936Z,84.14
2024-02-11T14:12:50.256Z,84.33
2024-02-11T14:17:53.461Z,84.49
2024-02-11T14:22:56.920Z,84.64
2024-02-11T14:27:59.721Z,84.76
2024-02-11T14:33:02.420Z,84.71
2024-02-11T14:38:08.303Z,84.65
2024-02-11T14:43:11.226Z,84.66
2024-02-11T14:48:15.127Z,84.69
2024-02-11T14:53:18.342Z,84.87
2024-02-11T14:58:24.316Z,85.04
2024-02-11T15:03:30.488Z,84.87
2024-02-11T15:08:34.567Z,85.05
2024-02-11T15:13:38.141Z,85.22
2024-02-11T15:18:41.365Z,85.18
2024-02-11T15:23:44.119Z,85.18
2024-02-11T15:28:46.977Z,84.25
2024-02-11T15:33:49.814Z,81.85
2024-02-11T15:38:52.852Z,82.25
2024-02-11T15:43:55.636Z,82.76
2024-02-11T15:48:58.585Z,83.35
2024-02-11T15:54:01.525Z,83.86
2024-02-11T15:59:04.665Z,84.36
2024-02-11T16:04:09.941Z,84.54
2024-02-11T16:09:12.880Z,84.95
2024-02-11T16:14:16.236Z,85.07
2024-02-11T16:19:19.112Z,85.05
2024-02-11T16:24:21.864Z,85.00
2024-02-11T16:29:24.564Z,85.02
2024-02-11T16:34:27.370Z,84.69
2024-02-11T16:39:31.791Z,84.38
2024-02-11T16:44:36.267Z,84.07
2024-02-11T16:49:39.161Z,83.79
2024-02-11T16:54:44.282Z,83.63
2024-02-11T16:59:47.560Z,83.42
2024-02-11T17:04:51.354Z,83.31
2024-02-11T17:09:55.125Z,83.14
2024-02-11T17:14:57.767Z,82.90
2024-02-11T17:20:00.650Z,82.82
2024-02-11T17:25:03.709Z,82.81
2024-02-11T17:30:07.892Z,82.68
2024-02-11T17:35:12.644Z,82.62
2024-02-11T17:40:16.978Z,82.66
2024-02-11T17:45:21.590Z,82.68
2024-02-11T17:50:24.359Z,82.81
2024-02-11T17:55:29.477Z,82.95
2024-02-11T18:00:42.152Z,83.19
2024-02-11T18:05:54.384Z,82.98
2024-02-11T18:10:57.234Z,83.01
2024-02-11T18:15:59.972Z,83.17
2024-02-11T18:21:03.117Z,83.33
2024-02-11T18:26:09.542Z,83.24
2024-02-11T18:31:17.375Z,83.12
2024-02-11T18:36:20.619Z,83.15
2024-02-11T18:41:23.616Z,83.34
2024-02-11T18:46:28.147Z,83.59
2024-02-11T18:51:37.318Z,84.05
2024-02-11T18:56:40.663Z,84.06
2024-02-11T19:01:43.572Z,84.05
2024-02-11T19:06:47.555Z,84.09
2024-02-11T19:11:51.010Z,84.18
2024-02-11T19:16:56.826Z,84.27
2024-02-11T19:22:04.333Z,84.20
2024-02-11T19:27:14.182Z,84.01
2024-02-11T19:32:18.387Z,84.09
2024-02-11T19:37:21.823Z,84.20
2024-02-11T19:42:24.625Z,84.27
2024-02-11T19:47:27.966Z,84.15
2024-02-11T19:52:31.118Z,84.00
2024-02-11T19:57:33.817Z,83.84
2024-02-11T20:02:36.527Z,83.79
2024-02-11T20:07:39.833Z,83.81
2024-02-11T20:12:46.872Z,83.77
2024-02-11T20:17:50.171Z,83.75
2024-02-11T20:22:52.996Z,83.66
2024-02-11T20:27:56.770Z,83.70
2024-02-11T20:33:01.064Z,83.85
2024-02-11T20:38:03.920Z,83.79
2024-02-11T20:43:06.589Z,83.64
2024-02-11T20:48:14.343Z,83.52
2024-02-11T20:53:17.973Z,83.47
2024-02-11T20:58:21.006Z,83.61
2024-02-11T21:03:23.864Z,83.51
2024-02-11T21:08:26.865Z,83.42
2024-02-11T21:13:29.747Z,83.58
2024-02-11T21:18:36.752Z,83.63
2024-02-11T21:23:41.373Z,83.76
2024-02-11T21:28:53.106Z,83.69
2024-02-11T21:33:56.248Z,83.65
2024-02-11T21:38:59.635Z,83.73
2024-02-11T21:44:03.525Z,83.90
2024-02-11T21:49:11.187Z,83.87
2024-02-11T21:54:18.127Z,84.03
2024-02-11T21:59:22.719Z,84.00
2024-02-11T22:04:26.110Z,83.92
2024-02-11T22:09:28.992Z,83.71
2024-02-11T22:14:31.967Z,83.67
2024-02-11T22:19:34.915Z,83.69
2024-02-11T22:24:38.261Z,83.83
2024-02-11T22:29:45.522Z,83.81
2024-02-11T22:34:48.244Z,83.96
2024-02-11T22:39:51.526Z,84.05
2024-02-11T22:44:54.496Z,84.19
2024-02-11T22:49:57.722Z,84.44
2024-02-11T22:55:01.125Z,84.38
2024-02-11T23:00:24.439Z,84.23
2024-02-11T23:05:27.823Z,84.37
2024-02-11T23:10:34.140Z,84.35
2024-02-11T23:15:37.004Z,84.20
2024-02-11T23:20:39.698Z,84.16
2024-02-11T23:25:42.528Z,84.29
2024-02-11T23:30:45.357Z,84.62
2024-02-11T23:35:48.214Z,84.95
2024-02-11T23:40:51.420Z,85.22
2024-02-11T23:45:54.315Z,85.32
2024-02-11T23:51:00.804Z,85.53
2024-02-11T23:56:04.123Z,85.82
